createdAt,value
2023-03-12T00:01:48.245Z,12.70
2023-03-12T00:04:21.549Z,10.20
2023-03-12T00:06:50.914Z,10.70
2023-03-12T00:09:23.223Z,9.10
2023-03-12T00:11:52.575Z,13.00
2023-03-12T00:14:23.557Z,12.60
2023-03-12T00:16:53.914Z,8.90
2023-03-12T00:19:24.565Z,8.60
2023-03-12T00:21:59.759Z,10.40
2023-03-12T00:24:30.462Z,10.00
2023-03-12T00:27:01.399Z,8.90
2023-03-12T00:29:30.442Z,9.30
2023-03-12T00:32:02.398Z,9.20
2023-03-12T00:34:33.079Z,8.40
2023-03-12T00:37:04.307Z,8.50
2023-03-12T00:39:34.631Z,7.80
2023-03-12T00:42:07.319Z,7.60
2023-03-12T00:44:38.476Z,9.60
2023-03-12T00:47:09.669Z,9.00
2023-03-12T00:49:42.591Z,6.80
2023-03-12T00:52:12.089Z,7.20
2023-03-12T00:54:41.604Z,10.90
2023-03-12T00:57:13.495Z,9.60
2023-03-12T00:59:43.928Z,12.80
2023-03-12T01:02:16.234Z,8.30
2023-03-12T01:04:46.854Z,9.20
2023-03-12T01:07:17.152Z,6.50
2023-03-12T01:09:47.522Z,8.90
2023-03-12T01:12:17.192Z,7.30
2023-03-12T01:14:47.807Z,7.80
2023-03-12T01:17:18.612Z,8.20
2023-03-12T01:19:50.117Z,10.50
2023-03-12T01:22:20.544Z,6.20
2023-03-12T01:24:49.464Z,6.70
2023-03-12T01:27:20.860Z,8.30
2023-03-12T01:29:49.719Z,7.40
2023-03-12T01:32:22.304Z,8.00
2023-03-12T01:34:52.635Z,7.40
2023-03-12T01:37:24.954Z,7.30
2023-03-12T01:39:56.179Z,5.90
2023-03-12T01:42:26.194Z,7.70
2023-03-12T01:45:01.407Z,7.40
2023-03-12T01:47:32.428Z,9.70
2023-03-12T01:50:06.060Z,5.60
2023-03-12T01:52:38.636Z,11.90
2023-03-12T01:55:15.257Z,7.10
2023-03-12T01:57:55.663Z,7.50
2023-03-12T02:00:29.365Z,6.10
2023-03-12T02:03:07.564Z,8.20
2023-03-12T02:05:52.926Z,6.80
2023-03-12T02:10:54.891Z,7.40
2023-03-12T02:13:24.422Z,5.20
2023-03-12T02:15:54.655Z,7.80
2023-03-12T02:18:25.977Z,6.70
2023-03-12T02:21:18.876Z,5.20
2023-03-12T02:24:03.685Z,5.40
2023-03-12T02:26:37.205Z,7.50
2023-03-12T02:29:11.241Z,6.00
2023-03-12T02:31:52.528Z,5.10
2023-03-12T02:34:23.396Z,4.40
2023-03-12T02:36:54.182Z,7.90
2023-03-12T02:39:23.816Z,8.40
2023-03-12T02:41:58.145Z,5.10
2023-03-12T02:44:31.688Z,7.00
2023-03-12T02:47:04.744Z,4.70
2023-03-12T02:49:35.358Z,7.80
2023-03-12T02:52:04.854Z,3.90
2023-03-12T02:54:34.851Z,7.10
2023-03-12T02:57:06.357Z,4.20
2023-03-12T02:59:36.724Z,8.60
2023-03-12T03:02:10.866Z,5.20
2023-03-12T03:04:44.251Z,4.60
2023-03-12T03:07:15.229Z,6.00
2023-03-12T03:09:46.114Z,7.90
2023-03-12T03:12:15.479Z,5.50
2023-03-12T03:14:45.657Z,4.00
2023-03-12T03:17:15.887Z,4.90
2023-03-12T03:19:49.016Z,5.60
2023-03-12T03:22:19.652Z,4.40
2023-03-12T03:24:53.929Z,4.70
2023-03-12T03:27:25.430Z,6.60
2023-03-12T03:29:55.560Z,3.70
2023-03-12T03:32:25.068Z,8.00
2023-03-12T03:34:57.237Z,5.10
2023-03-12T03:37:28.757Z,3.00
2023-03-12T03:39:58.470Z,4.90
2023-03-12T03:42:30.181Z,5.40
2023-03-12T03:44:59.816Z,2.90
2023-03-12T03:47:32.291Z,4.50
2023-03-12T03:50:02.130Z,4.20
2023-03-12T03:52:33.763Z,5.80
2023-03-12T03:55:05.195Z,3.60
2023-03-12T03:57:37.468Z,2.90
2023-03-12T04:00:13.486Z,3.70
2023-03-12T04:02:49.100Z,4.10
2023-03-12T04:05:19.874Z,3.30
2023-03-12T04:07:50.328Z,3.90
2023-03-12T04:10:22.480Z,2.50
2023-03-12T04:12:54.609Z,6.30
2023-03-12T04:15:26.326Z,4.90
2023-03-12T04:17:57.262Z,5.90
2023-03-12T04:20:32.067Z,3.10
2023-03-12T04:23:04.512Z,4.30
2023-03-12T04:25:35.243Z,3.10
2023-03-12T04:28:07.936Z,3.90
2023-03-12T04:30:40.536Z,2.00
2023-03-12T04:33:13.228Z,3.10
2023-03-12T04:35:52.039Z,3.20
2023-03-12T04:38:26.548Z,4.40
2023-03-12T04:41:07.410Z,4.80
2023-03-12T04:43:38.211Z,3.70
2023-03-12T04:46:09.741Z,5.10
2023-03-12T04:48:41.436Z,4.10
2023-03-12T04:51:11.158Z,4.10
2023-03-12T04:53:42.362Z,4.50
2023-03-12T04:56:12.690Z,2.40
2023-03-12T04:58:42.978Z,6.60
2023-03-12T05:01:38.300Z,3.00
2023-03-12T05:04:15.010Z,3.90
2023-03-12T05:06:45.622Z,4.40
2023-03-12T05:09:18.939Z,2.90
2023-03-12T05:11:48.377Z,2.80
2023-03-12T05:14:20.121Z,2.60
2023-03-12T05:16:49.669Z,2.80
2023-03-12T05:19:21.841Z,2.40
2023-03-12T05:22:18.087Z,5.10
2023-03-12T05:24:49.747Z,2.40
2023-03-12T05:27:20.636Z,3.80
2023-03-12T05:29:52.165Z,4.30
2023-03-12T05:32:23.030Z,2.00
2023-03-12T05:34:54.696Z,3.30
2023-03-12T05:37:25.151Z,3.40
2023-03-12T05:39:56.777Z,2.50
2023-03-12T05:42:26.543Z,3.20
2023-03-12T05:44:59.695Z,3.80
2023-03-12T05:47:30.399Z,5.60
2023-03-12T05:50:01.022Z,5.90
2023-03-12T05:52:31.530Z,4.00
2023-03-12T05:55:05.172Z,2.90
2023-03-12T05:57:35.651Z,4.20
2023-03-12T06:00:05.983Z,2.40
2023-03-12T06:02:42.114Z,6.00
2023-03-12T06:09:56.696Z,4.00
2023-03-12T06:12:26.812Z,3.30
2023-03-12T06:14:55.972Z,5.40
2023-03-12T06:17:25.016Z,3.20
2023-03-12T06:19:56.235Z,2.70
2023-03-12T06:22:29.510Z,5.20
2023-03-12T06:24:58.601Z,5.10
2023-03-12T06:27:29.922Z,1.30
2023-03-12T06:30:00.352Z,4.00
2023-03-12T06:32:29.415Z,2.70
2023-03-12T06:35:01.139Z,3.30
2023-03-12T06:37:33.093Z,2.90
2023-03-12T06:40:03.108Z,1.60
2023-03-12T06:42:34.011Z,4.10
2023-03-12T06:45:07.972Z,2.40
2023-03-12T06:47:36.968Z,2.80
2023-03-12T06:50:08.395Z,3.50
2023-03-12T06:52:38.421Z,4.00
2023-03-12T06:55:09.843Z,5.70
2023-03-12T06:57:40.163Z,3.30
2023-03-12T07:00:11.700Z,3.00
2023-03-12T07:02:40.828Z,5.00
2023-03-12T07:05:12.933Z,2.00
2023-03-12T07:07:43.120Z,3.90
2023-03-12T07:10:14.675Z,3.60
2023-03-12T07:12:46.419Z,1.80
2023-03-12T07:15:16.904Z,1.70
2023-03-12T07:17:45.996Z,2.10
2023-03-12T07:20:15.601Z,3.10
2023-03-12T07:22:45.996Z,3.20
2023-03-12T07:25:17.272Z,6.70
2023-03-12T07:27:49.243Z,4.00
2023-03-12T07:30:22.015Z,5.20
2023-03-12T07:32:52.669Z,5.00
2023-03-12T07:35:24.358Z,2.40
2023-03-12T07:37:55.131Z,4.80
2023-03-12T07:40:24.611Z,2.30
2023-03-12T07:42:54.693Z,4.80
2023-03-12T07:45:24.225Z,4.20
2023-03-12T07:47:54.264Z,4.60
2023-03-12T07:50:24.344Z,4.60
2023-03-12T07:52:53.457Z,4.90
2023-03-12T07:55:23.987Z,2.60
2023-03-12T07:57:56.857Z,4.80
2023-03-12T08:00:31.418Z,5.20
2023-03-12T08:03:00.896Z,3.20
2023-03-12T08:05:32.604Z,2.70
2023-03-12T08:08:02.023Z,2.90
2023-03-12T08:10:31.234Z,8.20
2023-03-12T08:13:00.906Z,9.10
2023-03-12T08:15:29.884Z,24.50
2023-03-12T08:18:00.047Z,6.80
2023-03-12T08:20:30.824Z,3.60
2023-03-12T08:23:06.464Z,5.00
2023-03-12T08:25:39.149Z,8.20
2023-03-12T08:28:09.351Z,3.70
2023-03-12T08:30:38.618Z,4.40
2023-03-12T08:33:08.743Z,7.30
2023-03-12T08:35:39.102Z,7.00
2023-03-12T08:38:10.499Z,8.40
2023-03-12T08:40:41.909Z,4.60
2023-03-12T08:43:11.300Z,3.90
2023-03-12T08:45:43.390Z,4.40
2023-03-12T08:48:15.773Z,3.70
2023-03-12T08:51:10.846Z,5.70
2023-03-12T08:53:42.770Z,4.30
2023-03-12T08:56:12.028Z,4.50
2023-03-12T08:58:43.831Z,3.60
2023-03-12T09:01:14.032Z,4.50
2023-03-12T09:08:27.502Z,4.00
2023-03-12T09:11:08.439Z,3.30
2023-03-12T09:13:58.128Z,4.80
2023-03-12T09:16:28.374Z,4.40
2023-03-12T09:18:57.781Z,5.50
2023-03-12T09:21:29.034Z,3.40
2023-03-12T09:23:58.295Z,4.50
2023-03-12T09:26:28.705Z,4.50
2023-03-12T09:28:59.225Z,4.80
2023-03-12T09:31:28.523Z,4.20
2023-03-12T09:33:57.416Z,4.50
2023-03-12T09:36:26.388Z,5.80
2023-03-12T09:38:55.916Z,3.10
2023-03-12T09:41:39.391Z,3.10
2023-03-12T09:44:24.692Z,6.60
2023-03-12T09:46:58.162Z,9.90
2023-03-12T09:49:38.994Z,4.40
2023-03-12T09:52:36.858Z,3.10
2023-03-12T09:55:17.644Z,3.30
2023-03-12T09:57:50.863Z,6.10
2023-03-12T10:00:23.843Z,11.80
2023-03-12T10:02:58.654Z,7.50
2023-03-12T10:05:55.933Z,3.80
2023-03-12T10:08:47.892Z,4.70
2023-03-12T10:11:29.167Z,5.10
2023-03-12T10:14:23.642Z,3.90
2023-03-12T10:17:30.404Z,3.70
2023-03-12T10:20:31.376Z,20.30
2023-03-12T10:23:36.973Z,7.00
2023-03-12T10:26:29.102Z,5.30
2023-03-12T10:29:00.120Z,5.10
2023-03-12T10:31:52.057Z,4.10
2023-03-12T10:34:44.502Z,5.20
2023-03-12T10:37:27.352Z,3.80
2023-03-12T10:39:57.672Z,4.00
2023-03-12T10:42:29.447Z,2.50
2023-03-12T10:45:10.380Z,5.10
2023-03-12T10:47:41.269Z,3.30
2023-03-12T10:50:25.517Z,4.30
2023-03-12T10:53:24.026Z,5.00
2023-03-12T10:56:02.376Z,3.60
2023-03-12T10:58:35.883Z,4.20
2023-03-12T11:01:16.554Z,6.80
2023-03-12T11:03:46.654Z,8.00
2023-03-12T11:06:29.374Z,4.70
2023-03-12T11:09:16.994Z,7.20
2023-03-12T11:11:48.947Z,6.70
2023-03-12T11:14:21.534Z,4.30
2023-03-12T11:16:52.155Z,5.20
2023-03-12T11:19:32.459Z,3.30
2023-03-12T11:22:08.642Z,4.50
2023-03-12T11:24:55.033Z,4.70
2023-03-12T11:27:42.507Z,5.60
2023-03-12T11:30:16.579Z,4.60
2023-03-12T11:32:48.413Z,2.30
2023-03-12T11:35:28.445Z,5.10
2023-03-12T11:38:09.247Z,3.70
2023-03-12T11:41:00.209Z,4.30
2023-03-12T11:43:43.558Z,3.70
2023-03-12T11:46:18.946Z,3.50
2023-03-12T11:48:56.912Z,8.50
2023-03-12T11:51:52.467Z,7.30
2023-03-12T11:54:58.646Z,6.00
2023-03-12T11:57:39.279Z,4.70
2023-03-12T12:00:17.875Z,4.80
2023-03-12T12:03:24.521Z,7.30
2023-03-12T12:06:19.859Z,5.10
2023-03-12T12:09:16.343Z,4.70
2023-03-12T12:11:58.390Z,6.00
2023-03-12T12:14:59.072Z,5.60
2023-03-12T12:17:50.394Z,4.80
2023-03-12T12:21:00.027Z,5.60
2023-03-12T12:23:58.910Z,3.50
2023-03-12T12:26:58.790Z,4.60
2023-03-12T12:30:00.576Z,4.50
2023-03-12T12:33:05.732Z,4.60
2023-03-12T12:35:42.808Z,5.80
2023-03-12T12:38:44.629Z,7.60
2023-03-12T12:41:25.610Z,6.20
2023-03-12T12:44:02.945Z,6.80
2023-03-12T12:46:37.808Z,4.80
2023-03-12T12:49:13.248Z,5.00
2023-03-12T12:51:48.979Z,5.30
2023-03-12T12:54:55.758Z,4.20
2023-03-12T12:57:33.200Z,2.50
2023-03-12T13:00:40.343Z,4.80
2023-03-12T13:03:20.984Z,4.30
2023-03-12T13:05:53.061Z,3.50
2023-03-12T13:08:40.113Z,3.30
2023-03-12T13:11:20.680Z,4.80
2023-03-12T13:14:05.332Z,8.30
2023-03-12T13:16:49.911Z,4.30
2023-03-12T13:19:20.698Z,3.80
2023-03-12T13:22:33.028Z,7.00
2023-03-12T13:25:48.557Z,4.60
2023-03-12T13:28:36.769Z,6.10
2023-03-12T13:31:30.167Z,6.20
2023-03-12T13:34:21.521Z,5.80
2023-03-12T13:36:59.819Z,2.60
2023-03-12T13:39:32.476Z,4.10
2023-03-12T13:42:22.009Z,5.40
2023-03-12T13:44:53.898Z,6.70
2023-03-12T13:47:37.925Z,6.80
2023-03-12T13:50:17.237Z,7.40
2023-03-12T13:52:52.396Z,6.40
2023-03-12T13:55:28.012Z,4.50
2023-03-12T13:58:12.206Z,5.50
2023-03-12T14:00:57.420Z,11.90
2023-03-12T14:03:40.469Z,13.20
2023-03-12T14:06:14.492Z,7.90
2023-03-12T14:09:12.612Z,7.90
2023-03-12T14:11:59.527Z,5.70
2023-03-12T14:14:44.326Z,8.10
2023-03-12T14:17:24.672Z,7.50
2023-03-12T14:20:12.543Z,9.10
2023-03-12T14:22:46.048Z,22.40
2023-03-12T14:25:28.382Z,14.80
2023-03-12T14:28:00.861Z,15.80
2023-03-12T14:30:45.067Z,28.00
2023-03-12T14:33:20.368Z,17.30
2023-03-12T14:35:58.151Z,5.40
2023-03-12T14:38:45.968Z,7.00
2023-03-12T14:41:46.785Z,4.60
2023-03-12T14:44:25.270Z,6.60
2023-03-12T14:47:00.575Z,7.50
2023-03-12T14:49:32.323Z,5.20
2023-03-12T14:52:02.070Z,10.20
2023-03-12T14:54:31.792Z,5.90
2023-03-12T14:57:02.985Z,5.60
2023-03-12T14:59:35.419Z,7.40
2023-03-12T15:02:19.346Z,8.40
2023-03-12T15:04:59.071Z,5.50
2023-03-12T15:07:38.348Z,4.60
2023-03-12T15:10:25.316Z,4.30
2023-03-12T15:13:06.707Z,5.30
2023-03-12T15:15:50.643Z,4.90
2023-03-12T15:18:28.178Z,5.00
2023-03-12T15:21:06.006Z,6.20
2023-03-12T15:23:46.637Z,5.60
2023-03-12T15:26:30.778Z,5.30
2023-03-12T15:29:05.783Z,4.50
2023-03-12T15:31:50.895Z,6.50
2023-03-12T15:34:56.165Z,3.60
2023-03-12T15:37:43.003Z,4.20
2023-03-12T15:40:25.554Z,5.10
2023-03-12T15:42:59.729Z,4.40
2023-03-12T15:45:40.775Z,5.10
2023-03-12T15:48:39.047Z,7.30
2023-03-12T15:55:27.174Z,7.60
2023-03-12T15:58:47.817Z,8.90
2023-03-12T16:01:52.908Z,12.00
2023-03-12T16:04:25.197Z,8.60
2023-03-12T16:06:56.720Z,11.50
2023-03-12T16:09:29.760Z,8.00
2023-03-12T16:12:01.318Z,9.10
2023-03-12T16:14:40.149Z,11.60
2023-03-12T16:17:26.284Z,8.30
2023-03-12T16:20:18.277Z,9.90
2023-03-12T16:22:50.535Z,10.30
2023-03-12T16:25:22.610Z,8.00
2023-03-12T16:28:01.744Z,8.20
2023-03-12T16:30:35.918Z,7.80
2023-03-12T16:33:09.281Z,9.60
2023-03-12T16:35:39.921Z,5.90
2023-03-12T16:38:14.472Z,6.20
2023-03-12T16:41:08.344Z,9.40
2023-03-12T16:43:41.750Z,6.70
2023-03-12T16:46:21.327Z,6.50
2023-03-12T16:48:57.093Z,5.70
2023-03-12T16:51:38.345Z,7.00
2023-03-12T16:54:12.345Z,5.40
2023-03-12T16:56:50.412Z,4.70
2023-03-12T16:59:25.709Z,10.80
2023-03-12T17:02:00.066Z,11.30
2023-03-12T17:04:32.136Z,13.20
2023-03-12T17:07:05.799Z,11.20
2023-03-12T17:09:38.413Z,10.90
2023-03-12T17:12:39.434Z,11.50
2023-03-12T17:15:23.889Z,8.00
2023-03-12T17:17:56.936Z,8.00
2023-03-12T17:20:38.111Z,11.00
2023-03-12T17:23:10.657Z,10.40
2023-03-12T17:25:47.614Z,18.80
2023-03-12T17:28:21.693Z,14.00
2023-03-12T17:30:54.734Z,21.10
2023-03-12T17:33:29.324Z,19.40
2023-03-12T17:38:36.040Z,18.40
2023-03-12T17:41:23.508Z,22.50
2023-03-12T17:44:03.640Z,20.90
2023-03-12T17:46:36.048Z,24.90
2023-03-12T17:49:12.303Z,20.20
2023-03-12T17:52:14.695Z,17.00
2023-03-12T17:54:52.752Z,14.30
2023-03-12T17:57:27.252Z,16.80
2023-03-12T18:00:03.074Z,35.40
2023-03-12T18:06:48.708Z,98.30
2023-03-12T18:09:20.575Z,98.10
2023-03-12T18:11:54.234Z,146.60
2023-03-12T18:14:31.359Z,61.50
2023-03-12T18:17:05.271Z,153.50
2023-03-12T18:19:37.019Z,44.60
2023-03-12T18:22:08.438Z,45.60
2023-03-12T18:24:48.849Z,29.80
2023-03-12T18:30:30.508Z,39.50
2023-03-12T18:33:06.425Z,25.60
2023-03-12T18:35:42.458Z,40.00
2023-03-12T18:38:16.621Z,99.40
2023-03-12T18:40:53.884Z,254.70
2023-03-12T18:43:27.530Z,158.70
2023-03-12T18:46:00.130Z,60.00
2023-03-12T18:48:34.672Z,47.50
2023-03-12T18:51:09.788Z,47.30
2023-03-12T18:53:46.544Z,160.40
2023-03-12T18:56:19.014Z,174.70
2023-03-12T18:58:51.074Z,30.90
2023-03-12T19:01:25.486Z,151.30
2023-03-12T19:04:00.997Z,36.50
2023-03-12T19:06:49.820Z,109.70
2023-03-12T19:09:28.503Z,119.20
2023-03-12T19:12:05.317Z,51.10
2023-03-12T19:14:40.225Z,83.90
2023-03-12T19:17:14.525Z,121.50
2023-03-12T19:19:50.515Z,78.10
2023-03-12T19:22:24.046Z,71.00
2023-03-12T19:24:56.592Z,161.50
2023-03-12T19:27:30.697Z,150.90
2023-03-12T19:30:03.523Z,183.30
2023-03-12T19:32:43.382Z,99.90
2023-03-12T19:35:18.460Z,136.40
2023-03-12T19:37:52.864Z,106.70
2023-03-12T19:40:25.997Z,112.40
2023-03-12T19:42:57.766Z,106.50
2023-03-12T19:45:30.228Z,180.80
2023-03-12T19:48:02.550Z,94.50
2023-03-12T19:50:35.200Z,117.30
2023-03-12T19:53:09.741Z,61.50
2023-03-12T19:55:43.162Z,65.80
2023-03-12T19:58:16.249Z,58.70
2023-03-12T20:00:50.289Z,57.70
2023-03-12T20:03:28.173Z,65.50
2023-03-12T20:05:58.765Z,41.90
2023-03-12T20:08:32.611Z,29.40
2023-03-12T20:11:07.423Z,31.10
2023-03-12T20:13:40.661Z,58.10
2023-03-12T20:16:23.576Z,160.90
2023-03-12T20:18:58.587Z,80.90
2023-03-12T20:22:45.701Z,29.80
2023-03-12T20:25:21.557Z,191.20
2023-03-12T20:27:56.945Z,203.70
2023-03-12T20:30:30.218Z,37.30
2023-03-12T20:33:03.528Z,46.10
2023-03-12T20:35:37.763Z,183.60
2023-03-12T20:38:32.931Z,239.40
2023-03-12T20:41:11.515Z,46.50
2023-03-12T20:43:46.336Z,87.70
2023-03-12T20:46:20.559Z,69.00
2023-03-12T20:48:56.631Z,62.20
2023-03-12T20:54:07.464Z,101.20
2023-03-12T20:56:45.242Z,36.50
2023-03-12T20:59:17.522Z,70.20
2023-03-12T21:02:03.553Z,92.80
2023-03-12T21:04:34.964Z,46.50
2023-03-12T21:07:06.222Z,16.90
2023-03-12T21:09:41.653Z,32.10
2023-03-12T21:12:11.926Z,144.50
2023-03-12T21:14:45.650Z,93.50
2023-03-12T21:17:18.817Z,77.90
2023-03-12T21:19:53.356Z,72.50
2023-03-12T21:26:53.336Z,68.90
2023-03-12T21:29:26.355Z,73.00
2023-03-12T21:31:59.603Z,92.30
2023-03-12T21:35:00.048Z,37.10
2023-03-12T21:37:33.418Z,69.20
2023-03-12T21:40:40.094Z,62.70
2023-03-12T21:43:35.283Z,41.00
2023-03-12T21:51:45.361Z,31.20
2023-03-12T21:54:20.604Z,50.40
2023-03-12T21:56:52.170Z,95.10
2023-03-12T21:59:22.777Z,52.40
2023-03-12T22:01:58.556Z,34.10
2023-03-12T22:04:30.733Z,35.20
2023-03-12T22:07:02.443Z,50.00
2023-03-12T22:09:32.008Z,42.40
2023-03-12T22:12:02.436Z,33.60
2023-03-12T22:14:34.385Z,38.10
2023-03-12T22:17:09.390Z,27.80
2023-03-12T22:19:42.004Z,27.00
2023-03-12T22:22:12.787Z,29.30
2023-03-12T22:24:43.947Z,34.50
2023-03-12T22:27:14.459Z,34.10
2023-03-12T22:29:46.104Z,27.40
2023-03-12T22:32:19.474Z,35.60
2023-03-12T22:34:51.916Z,80.80
2023-03-12T22:37:21.743Z,35.80
2023-03-12T22:39:54.337Z,131.40
2023-03-12T22:42:25.958Z,152.20
2023-03-12T22:44:56.122Z,55.40
2023-03-12T22:47:27.814Z,20.60
2023-03-12T22:49:58.844Z,29.50
2023-03-12T22:52:29.830Z,43.70
2023-03-12T22:55:01.160Z,33.00
2023-03-12T22:57:36.764Z,30.20
2023-03-12T23:00:10.970Z,299.40
2023-03-12T23:02:41.432Z,44.90
2023-03-12T23:05:14.153Z,36.10
2023-03-12T23:07:43.644Z,41.50
2023-03-12T23:10:17.483Z,49.10
2023-03-12T23:12:48.833Z,84.70
2023-03-12T23:15:22.581Z,29.30
2023-03-12T23:17:55.855Z,20.90
2023-03-12T23:21:39.552Z,24.00
2023-03-12T23:24:11.400Z,60.40
2023-03-12T23:26:44.065Z,43.50
2023-03-12T23:29:15.327Z,52.10
2023-03-12T23:31:46.687Z,110.90
2023-03-12T23:34:19.735Z,29.70
2023-03-12T23:36:50.190Z,69.40
2023-03-12T23:39:21.579Z,20.60
2023-03-12T23:41:50.944Z,25.10
2023-03-12T23:44:24.187Z,293.80
2023-03-12T23:46:54.173Z,16.60
2023-03-12T23:49:27.217Z,44.30
2023-03-12T23:51:59.678Z,22.90
2023-03-12T23:54:30.672Z,17.30
2023-03-12T23:57:03.130Z,89.70
2023-03-12T23:59:33.805Z,89.90
